createdAt,value
2023-04-18T00:00:35.853Z,69.80
2023-04-18T00:03:04.436Z,69.08
2023-04-18T00:05:31.531Z,68.31
2023-04-18T00:07:58.278Z,67.72
2023-04-18T00:10:25.276Z,67.54
2023-04-18T00:12:51.883Z,66.74
2023-04-18T00:15:18.649Z,67.57
2023-04-18T00:17:45.315Z,68.71
2023-04-18T00:20:12.783Z,69.49
2023-04-18T00:22:43.024Z,71.04
2023-04-18T00:25:11.121Z,69.40
2023-04-18T00:27:41.504Z,69.20
2023-04-18T00:30:09.088Z,70.48
2023-04-18T00:32:36.019Z,70.95
2023-04-18T00:35:02.729Z,70.92
2023-04-18T00:37:29.590Z,71.17
2023-04-18T00:39:56.245Z,70.70
2023-04-18T00:42:24.483Z,70.30
2023-04-18T00:44:51.140Z,70.70
2023-04-18T00:47:17.790Z,70.66
2023-04-18T00:49:45.298Z,71.15
2023-04-18T00:52:12.673Z,71.98
2023-04-18T00:54:40.834Z,72.19
2023-04-18T00:57:08.012Z,72.55
2023-04-18T00:59:35.649Z,72.61
2023-04-18T01:02:03.953Z,72.76
2023-04-18T01:04:32.691Z,74.01
2023-04-18T01:07:01.070Z,74.15
2023-04-18T01:09:28.470Z,73.01
2023-04-18T01:11:55.191Z,73.33
2023-04-18T01:14:22.015Z,72.04
2023-04-18T01:16:48.757Z,71.37
2023-04-18T01:19:19.228Z,70.27
2023-04-18T01:21:46.012Z,72.42
2023-04-18T01:24:15.208Z,72.05
2023-04-18T01:26:44.196Z,71.58
2023-04-18T01:29:11.385Z,72.20
2023-04-18T01:31:39.250Z,72.57
2023-04-18T01:34:06.835Z,72.22
2023-04-18T01:36:33.944Z,74.13
2023-04-18T01:39:01.134Z,74.90
2023-04-18T01:41:29.826Z,75.12
2023-04-18T01:43:56.468Z,76.92
2023-04-18T01:46:23.129Z,74.88
2023-04-18T01:48:49.848Z,74.12
2023-04-18T01:51:16.520Z,74.17
2023-04-18T01:53:43.227Z,73.33
2023-04-18T01:56:10.323Z,73.77
2023-04-18T01:58:37.517Z,73.55
2023-04-18T02:01:04.531Z,72.97
2023-04-18T02:03:31.355Z,71.51
2023-04-18T02:05:58.081Z,71.25
2023-04-18T02:08:24.712Z,72.64
2023-04-18T02:10:51.328Z,72.79
2023-04-18T02:13:17.971Z,72.86
2023-04-18T02:15:46.000Z,72.96
2023-04-18T02:18:12.673Z,74.53
2023-04-18T02:20:39.424Z,76.10
2023-04-18T02:23:06.178Z,74.73
2023-04-18T02:25:33.161Z,74.14
2023-04-18T02:27:59.937Z,73.26
2023-04-18T02:30:26.619Z,72.86
2023-04-18T02:32:59.150Z,74.01
2023-04-18T02:35:27.181Z,77.97
2023-04-18T02:37:53.809Z,74.88
2023-04-18T02:40:20.531Z,75.23
2023-04-18T02:42:47.193Z,74.53
2023-04-18T02:45:13.843Z,75.75
2023-04-18T02:47:53.741Z,74.46
2023-04-18T02:50:22.598Z,73.91
2023-04-18T02:52:49.277Z,73.76
2023-04-18T02:55:16.243Z,73.04
2023-04-18T02:57:43.191Z,72.72
2023-04-18T03:00:10.422Z,72.83
2023-04-18T03:02:37.236Z,72.04
2023-04-18T03:05:04.196Z,71.95
2023-04-18T03:07:31.168Z,71.47
2023-04-18T03:09:58.019Z,71.74
2023-04-18T03:12:24.733Z,71.35
2023-04-18T03:14:51.421Z,71.54
2023-04-18T03:17:18.576Z,72.24
2023-04-18T03:19:46.493Z,71.06
2023-04-18T03:22:14.244Z,71.59
2023-04-18T03:24:41.138Z,72.12
2023-04-18T03:27:07.884Z,73.17
2023-04-18T03:29:34.613Z,73.96
2023-04-18T03:32:01.298Z,75.17
2023-04-18T03:34:29.409Z,76.34
2023-04-18T03:36:56.121Z,74.51
2023-04-18T03:39:22.807Z,73.76
2023-04-18T03:41:49.931Z,75.94
2023-04-18T03:44:16.774Z,75.36
2023-04-18T03:46:43.996Z,73.96
2023-04-18T03:49:10.839Z,74.22
2023-04-18T03:51:48.119Z,73.11
2023-04-18T03:54:16.072Z,72.23
2023-04-18T03:56:43.423Z,73.25
2023-04-18T03:59:11.179Z,73.20
2023-04-18T04:01:38.217Z,74.48
2023-04-18T04:04:05.015Z,75.37
2023-04-18T04:06:32.192Z,74.73
2023-04-18T04:08:58.899Z,75.31
2023-04-18T04:11:26.016Z,76.63
2023-04-18T04:13:52.972Z,76.03
2023-04-18T04:16:19.657Z,75.75
2023-04-18T04:18:46.345Z,77.34
2023-04-18T04:21:13.168Z,76.46
2023-04-18T04:23:42.732Z,75.68
2023-04-18T04:26:09.746Z,75.80
2023-04-18T04:28:36.363Z,75.99
2023-04-18T04:31:03.761Z,80.98
2023-04-18T04:33:33.330Z,79.00
2023-04-18T04:36:01.296Z,77.58
2023-04-18T04:38:31.100Z,78.39
2023-04-18T04:40:58.751Z,83.01
2023-04-18T04:43:26.133Z,84.03
2023-04-18T04:45:53.788Z,80.12
2023-04-18T04:48:22.149Z,81.50
2023-04-18T04:50:54.172Z,79.19
2023-04-18T04:53:21.254Z,77.84
2023-04-18T04:55:48.323Z,77.51
2023-04-18T04:58:15.480Z,77.60
2023-04-18T05:00:42.116Z,78.08
2023-04-18T05:03:09.920Z,76.60
2023-04-18T05:05:36.637Z,74.90
2023-04-18T05:08:04.012Z,75.75
2023-04-18T05:10:30.708Z,75.14
2023-04-18T05:12:57.335Z,74.97
2023-04-18T05:15:24.696Z,75.36
2023-04-18T05:17:51.320Z,75.30
2023-04-18T05:20:18.004Z,75.60
2023-04-18T05:22:44.596Z,80.24
2023-04-18T05:25:12.413Z,79.76
2023-04-18T05:27:39.298Z,78.36
2023-04-18T05:30:06.684Z,77.24
2023-04-18T05:32:33.357Z,76.43
2023-04-18T05:35:00.057Z,75.87
2023-04-18T05:37:26.688Z,74.79
2023-04-18T05:39:53.413Z,76.56
2023-04-18T05:42:19.968Z,79.37
2023-04-18T05:44:46.553Z,79.37
2023-04-18T05:47:13.142Z,76.68
2023-04-18T05:49:39.769Z,76.36
2023-04-18T05:52:06.327Z,77.77
2023-04-18T05:54:32.963Z,76.86
2023-04-18T05:57:00.862Z,78.72
2023-04-18T05:59:28.340Z,76.80
2023-04-18T06:01:55.215Z,78.82
2023-04-18T06:04:22.101Z,78.55
2023-04-18T06:06:48.830Z,77.65
2023-04-18T06:09:16.679Z,77.34
2023-04-18T06:11:43.332Z,74.52
2023-04-18T06:14:09.898Z,76.18
2023-04-18T06:16:37.696Z,73.96
2023-04-18T06:19:05.361Z,73.77
2023-04-18T06:21:32.077Z,75.99
2023-04-18T06:23:58.742Z,73.36
2023-04-18T06:26:25.560Z,71.87
2023-04-18T06:28:52.210Z,69.00
2023-04-18T06:31:19.011Z,67.90
2023-04-18T06:33:45.698Z,68.86
2023-04-18T06:36:12.338Z,69.44
2023-04-18T06:38:39.099Z,70.59
2023-04-18T06:41:05.846Z,70.01
2023-04-18T06:43:32.528Z,67.51
2023-04-18T06:45:59.497Z,65.55
2023-04-18T06:48:26.134Z,66.71
2023-04-18T06:50:52.890Z,68.45
2023-04-18T06:53:19.891Z,67.20
2023-04-18T06:55:46.591Z,66.36
2023-04-18T06:58:16.108Z,64.71
2023-04-18T07:00:43.305Z,65.09
2023-04-18T07:03:13.577Z,63.51
2023-04-18T07:05:40.784Z,66.37
2023-04-18T07:08:07.722Z,65.59
2023-04-18T07:10:34.382Z,65.93
2023-04-18T07:13:01.040Z,65.47
2023-04-18T07:15:27.680Z,65.81
2023-04-18T07:17:54.478Z,65.10
2023-04-18T07:20:21.140Z,64.16
2023-04-18T07:22:48.850Z,64.68
2023-04-18T07:25:15.555Z,63.26
2023-04-18T07:27:42.370Z,61.85
2023-04-18T07:30:09.639Z,61.47
2023-04-18T07:32:36.414Z,62.57
2023-04-18T07:35:04.161Z,62.04
2023-04-18T07:37:31.556Z,62.37
2023-04-18T07:39:59.434Z,60.44
2023-04-18T07:42:26.201Z,59.37
2023-04-18T07:44:58.223Z,59.10
2023-04-18T07:47:27.601Z,59.00
2023-04-18T07:49:56.515Z,59.30
2023-04-18T07:52:23.298Z,58.54
2023-04-18T07:54:49.959Z,60.11
2023-04-18T07:57:16.847Z,60.36
2023-04-18T07:59:43.463Z,59.84
2023-04-18T08:02:10.172Z,59.10
2023-04-18T08:04:37.029Z,57.00
2023-04-18T08:07:03.800Z,55.93
2023-04-18T08:09:30.806Z,56.45
2023-04-18T08:11:59.401Z,53.92
2023-04-18T08:14:26.025Z,52.71
2023-04-18T08:16:52.686Z,53.25
2023-04-18T08:19:19.327Z,53.77
2023-04-18T08:21:45.898Z,52.92
2023-04-18T08:24:12.589Z,54.37
2023-04-18T08:26:39.264Z,55.30
2023-04-18T08:29:06.437Z,53.21
2023-04-18T08:31:33.281Z,53.17
2023-04-18T08:33:59.983Z,55.25
2023-04-18T08:36:26.844Z,53.96
2023-04-18T08:38:53.505Z,52.39
2023-04-18T08:41:23.499Z,53.16
2023-04-18T08:43:50.158Z,51.64
2023-04-18T08:46:17.325Z,53.35
2023-04-18T08:48:44.702Z,52.13
2023-04-18T08:51:11.442Z,52.25
2023-04-18T08:53:39.425Z,50.56
2023-04-18T08:56:10.431Z,51.59
2023-04-18T08:58:37.208Z,52.69
2023-04-18T09:01:03.878Z,52.45
2023-04-18T09:03:42.436Z,51.32
2023-04-18T09:06:14.432Z,51.80
2023-04-18T09:08:43.777Z,51.24
2023-04-18T09:11:31.714Z,51.31
2023-04-18T09:14:02.356Z,50.91
2023-04-18T09:16:46.788Z,51.82
2023-04-18T09:19:19.338Z,52.54
2023-04-18T09:21:48.743Z,50.90
2023-04-18T09:24:29.367Z,51.42
2023-04-18T09:26:58.727Z,51.04
2023-04-18T09:30:01.007Z,52.42
2023-04-18T09:32:30.674Z,52.58
2023-04-18T09:35:01.418Z,51.17
2023-04-18T09:37:29.864Z,51.15
2023-04-18T09:39:56.440Z,49.34
2023-04-18T09:42:23.090Z,50.88
2023-04-18T09:45:06.002Z,50.69
2023-04-18T09:47:39.453Z,52.13
2023-04-18T09:50:08.099Z,50.26
2023-04-18T09:52:36.753Z,50.52
2023-04-18T09:55:05.884Z,53.64
2023-04-18T09:57:33.924Z,55.80
2023-04-18T10:00:17.777Z,55.85
2023-04-18T10:02:53.312Z,56.08
2023-04-18T10:05:21.977Z,56.42
2023-04-18T10:07:50.675Z,59.78
2023-04-18T10:10:18.306Z,59.27
2023-04-18T10:12:48.001Z,59.31
2023-04-18T10:15:16.107Z,58.59
2023-04-18T10:20:27.310Z,56.64
2023-04-18T10:22:57.553Z,56.74
2023-04-18T10:25:39.387Z,54.85
2023-04-18T10:28:07.488Z,56.20
2023-04-18T10:30:43.678Z,56.29
2023-04-18T10:33:41.058Z,57.44
2023-04-18T10:36:09.295Z,55.70
2023-04-18T10:38:45.005Z,53.92
2023-04-18T10:41:16.696Z,54.23
2023-04-18T10:44:08.733Z,53.76
2023-04-18T10:46:42.223Z,55.09
2023-04-18T10:49:30.434Z,55.76
2023-04-18T10:52:00.911Z,51.43
2023-04-18T10:54:51.245Z,52.59
2023-04-18T10:57:17.919Z,53.86
2023-04-18T10:59:51.540Z,54.56
2023-04-18T11:02:29.604Z,54.80
2023-04-18T11:04:58.149Z,55.11
2023-04-18T11:07:39.534Z,52.84
2023-04-18T11:10:08.505Z,51.76
2023-04-18T11:12:41.145Z,51.56
2023-04-18T11:15:17.779Z,51.90
2023-04-18T11:17:44.762Z,53.43
2023-04-18T11:20:14.370Z,54.88
2023-04-18T11:22:54.354Z,52.53
2023-04-18T11:25:31.980Z,53.89
2023-04-18T11:28:00.271Z,52.54
2023-04-18T11:30:27.829Z,51.70
2023-04-18T11:32:55.961Z,51.68
2023-04-18T11:35:22.888Z,52.50
2023-04-18T11:37:50.336Z,51.91
2023-04-18T11:40:17.003Z,51.92
2023-04-18T11:42:43.710Z,52.39
2023-04-18T11:45:14.931Z,52.39
2023-04-18T11:47:43.443Z,50.80
2023-04-18T11:50:12.331Z,51.42
2023-04-18T11:52:42.405Z,53.01
2023-04-18T11:55:23.973Z,51.64
2023-04-18T11:57:51.993Z,50.80
2023-04-18T12:00:21.765Z,54.67
2023-04-18T12:02:51.461Z,53.08
2023-04-18T12:05:29.318Z,52.20
2023-04-18T12:07:56.855Z,53.62
2023-04-18T12:10:28.154Z,55.50
2023-04-18T12:12:58.691Z,62.05
2023-04-18T12:15:28.274Z,68.35
2023-04-18T12:17:59.936Z,70.03
2023-04-18T12:20:38.278Z,70.25
2023-04-18T12:23:05.284Z,69.40
2023-04-18T12:25:32.684Z,68.55
2023-04-18T12:28:26.377Z,70.27
2023-04-18T12:30:52.949Z,69.44
2023-04-18T12:33:19.821Z,68.85
2023-04-18T12:35:49.042Z,67.23
2023-04-18T12:38:20.256Z,69.15
2023-04-18T12:40:46.904Z,68.67
2023-04-18T12:43:13.503Z,68.61
2023-04-18T12:45:40.101Z,71.42
2023-04-18T12:48:07.372Z,68.85
2023-04-18T12:50:34.292Z,71.09
2023-04-18T12:53:02.327Z,66.96
2023-04-18T12:55:29.579Z,67.06
2023-04-18T12:57:56.739Z,66.83
2023-04-18T13:00:26.064Z,69.12
2023-04-18T13:02:52.944Z,68.83
2023-04-18T13:05:22.052Z,71.02
2023-04-18T13:07:49.841Z,69.68
2023-04-18T13:10:21.843Z,68.94
2023-04-18T13:12:49.605Z,67.01
2023-04-18T13:15:16.268Z,66.72
2023-04-18T13:17:43.743Z,67.71
2023-04-18T13:20:12.472Z,68.74
2023-04-18T13:22:40.418Z,67.62
2023-04-18T13:25:08.346Z,68.83
2023-04-18T13:27:35.093Z,69.22
2023-04-18T13:30:02.186Z,70.20
2023-04-18T13:32:28.848Z,69.51
2023-04-18T13:34:56.390Z,71.00
2023-04-18T13:37:23.620Z,69.54
2023-04-18T13:39:50.225Z,70.67
2023-04-18T13:42:18.308Z,69.88
2023-04-18T13:44:46.266Z,67.96
2023-04-18T13:47:13.110Z,68.46
2023-04-18T13:49:39.728Z,66.91
2023-04-18T13:52:06.525Z,68.87
2023-04-18T13:54:33.425Z,68.98
2023-04-18T13:57:05.803Z,66.11
2023-04-18T13:59:32.594Z,66.71
2023-04-18T14:01:59.434Z,64.24
2023-04-18T14:04:27.082Z,68.32
2023-04-18T14:06:53.929Z,68.03
2023-04-18T14:09:20.687Z,66.88
2023-04-18T14:11:47.429Z,68.23
2023-04-18T14:14:14.083Z,66.94
2023-04-18T14:16:40.721Z,65.80
2023-04-18T14:19:07.575Z,68.07
2023-04-18T14:21:34.209Z,65.59
2023-04-18T14:24:00.788Z,65.95
2023-04-18T14:26:27.552Z,66.43
2023-04-18T14:28:54.144Z,64.94
2023-04-18T14:31:21.086Z,66.17
2023-04-18T14:33:47.712Z,66.71
2023-04-18T14:36:15.311Z,66.37
2023-04-18T14:38:42.301Z,67.65
2023-04-18T14:41:08.991Z,66.52
2023-04-18T14:43:35.679Z,65.96
2023-04-18T14:46:02.289Z,64.39
2023-04-18T14:48:28.943Z,65.73
2023-04-18T14:51:00.009Z,65.44
2023-04-18T14:53:27.142Z,65.40
2023-04-18T14:55:53.898Z,64.76
2023-04-18T14:58:20.684Z,63.55
2023-04-18T15:00:47.498Z,64.11
2023-04-18T15:03:14.190Z,62.96
2023-04-18T15:05:43.045Z,62.54
2023-04-18T15:08:11.457Z,63.21
2023-04-18T15:10:40.064Z,62.47
2023-04-18T15:13:06.706Z,62.33
2023-04-18T15:15:36.453Z,64.32
2023-04-18T15:18:03.238Z,63.40
2023-04-18T15:20:29.958Z,65.41
2023-04-18T15:22:57.201Z,63.68
2023-04-18T15:25:23.965Z,64.43
2023-04-18T15:27:50.686Z,64.60
2023-04-18T15:30:17.341Z,63.76
2023-04-18T15:32:44.218Z,63.44
2023-04-18T15:35:11.955Z,61.92
2023-04-18T15:37:38.753Z,61.35
2023-04-18T15:40:08.647Z,61.60
2023-04-18T15:42:35.309Z,61.67
2023-04-18T15:45:02.346Z,62.89
2023-04-18T15:47:28.972Z,64.21
2023-04-18T15:49:56.002Z,63.89
2023-04-18T15:52:22.604Z,63.63
2023-04-18T15:54:51.921Z,62.67
2023-04-18T15:57:18.460Z,62.05
2023-04-18T15:59:45.088Z,61.87
2023-04-18T16:02:11.742Z,62.21
2023-04-18T16:04:38.328Z,61.81
2023-04-18T16:07:05.049Z,62.33
2023-04-18T16:09:31.984Z,61.78
2023-04-18T16:11:58.580Z,63.59
2023-04-18T16:14:25.127Z,64.29
2023-04-18T16:16:53.745Z,62.08
2023-04-18T16:19:20.555Z,62.21
2023-04-18T16:21:48.878Z,60.70
2023-04-18T16:24:16.378Z,61.72
2023-04-18T16:26:43.129Z,61.58
2023-04-18T16:29:09.813Z,62.17
2023-04-18T16:31:36.427Z,61.90
2023-04-18T16:34:03.401Z,62.09
2023-04-18T16:36:34.208Z,61.95
2023-04-18T16:39:00.850Z,62.43
2023-04-18T16:41:27.723Z,61.32
2023-04-18T16:43:54.353Z,60.64
2023-04-18T16:46:21.042Z,60.98
2023-04-18T16:48:48.651Z,60.51
2023-04-18T16:51:16.674Z,61.00
2023-04-18T16:53:44.583Z,61.92
2023-04-18T16:56:11.161Z,61.35
2023-04-18T16:58:37.753Z,60.90
2023-04-18T17:01:04.393Z,59.62
2023-04-18T17:03:31.064Z,58.73
2023-04-18T17:05:57.827Z,59.27
2023-04-18T17:08:27.100Z,59.98
2023-04-18T17:10:53.817Z,59.38
2023-04-18T17:13:26.761Z,59.83
2023-04-18T17:15:53.963Z,60.32
2023-04-18T17:18:20.744Z,60.82
2023-04-18T17:20:47.565Z,60.44
2023-04-18T17:23:14.273Z,60.53
2023-04-18T17:25:40.929Z,61.48
2023-04-18T17:28:07.508Z,61.00
2023-04-18T17:30:34.087Z,59.99
2023-04-18T17:33:00.858Z,59.70
2023-04-18T17:35:29.862Z,60.92
2023-04-18T17:37:56.439Z,61.67
2023-04-18T17:40:23.121Z,62.11
2023-04-18T17:42:49.679Z,60.66
2023-04-18T17:45:16.434Z,61.07
2023-04-18T17:47:43.332Z,62.59
2023-04-18T17:50:10.425Z,61.87
2023-04-18T17:52:37.327Z,60.81
2023-04-18T17:55:04.282Z,61.72
2023-04-18T17:57:32.991Z,61.05
2023-04-18T17:59:59.620Z,61.39
2023-04-18T18:02:28.163Z,60.97
2023-04-18T18:04:54.974Z,61.28
2023-04-18T18:07:21.642Z,60.83
2023-04-18T18:09:48.373Z,61.09
2023-04-18T18:12:15.059Z,60.52
2023-04-18T18:14:41.756Z,60.70
2023-04-18T18:17:08.418Z,60.53
2023-04-18T18:19:36.528Z,60.75
2023-04-18T18:22:03.272Z,62.06
2023-04-18T18:24:29.901Z,62.81
2023-04-18T18:26:58.089Z,63.63
2023-04-18T18:29:24.719Z,63.51
2023-04-18T18:31:51.445Z,61.90
2023-04-18T18:34:18.100Z,62.09
2023-04-18T18:36:44.722Z,61.52
2023-04-18T18:39:11.768Z,61.42
2023-04-18T18:41:38.550Z,63.16
2023-04-18T18:44:05.726Z,65.38
2023-04-18T18:46:32.470Z,64.96
2023-04-18T18:48:59.199Z,64.52
2023-04-18T18:51:26.328Z,64.08
2023-04-18T18:53:52.923Z,62.36
2023-04-18T18:56:19.663Z,61.55
2023-04-18T18:58:46.224Z,62.74
2023-04-18T19:01:12.985Z,63.23
2023-04-18T19:03:39.803Z,62.98
2023-04-18T19:06:07.428Z,64.50
2023-04-18T19:08:34.263Z,62.63
2023-04-18T19:11:01.026Z,61.81
2023-04-18T19:13:27.684Z,63.43
2023-04-18T19:15:54.419Z,63.87
2023-04-18T19:18:21.390Z,63.01
2023-04-18T19:20:49.869Z,61.72
2023-04-18T19:23:17.274Z,61.36
2023-04-18T19:25:45.009Z,60.23
2023-04-18T19:28:12.981Z,60.96
2023-04-18T19:30:40.070Z,61.56
2023-04-18T19:33:06.834Z,61.85
2023-04-18T19:35:35.283Z,61.47
2023-04-18T19:38:03.265Z,62.13
2023-04-18T19:40:30.045Z,63.23
2023-04-18T19:43:02.520Z,63.58
2023-04-18T19:45:31.399Z,63.06
2023-04-18T19:47:58.942Z,63.94
2023-04-18T19:50:27.896Z,63.36
2023-04-18T19:52:55.450Z,63.43
2023-04-18T19:55:23.150Z,63.45
2023-04-18T19:57:56.900Z,62.88
2023-04-18T20:00:24.539Z,63.39
2023-04-18T20:02:52.405Z,62.88
2023-04-18T20:05:21.233Z,62.60
2023-04-18T20:07:48.882Z,62.58
2023-04-18T20:10:16.351Z,62.58
2023-04-18T20:12:43.455Z,60.97
2023-04-18T20:15:11.112Z,61.99
2023-04-18T20:17:38.336Z,61.60
2023-04-18T20:20:08.206Z,62.85
2023-04-18T20:22:34.826Z,63.83
2023-04-18T20:25:02.462Z,64.76
2023-04-18T20:27:31.879Z,64.63
2023-04-18T20:29:58.481Z,63.37
2023-04-18T20:32:25.306Z,64.36
2023-04-18T20:34:52.101Z,64.84
2023-04-18T20:37:19.865Z,65.67
2023-04-18T20:39:46.554Z,64.90
2023-04-18T20:42:14.736Z,63.81
2023-04-18T20:44:47.076Z,63.31
2023-04-18T20:47:15.447Z,63.47
2023-04-18T20:49:42.656Z,62.60
2023-04-18T20:52:14.404Z,63.12
2023-04-18T20:54:41.874Z,63.57
2023-04-18T20:57:08.582Z,62.85
2023-04-18T20:59:35.435Z,63.08
2023-04-18T21:02:02.251Z,63.20
2023-04-18T21:04:29.433Z,65.13
2023-04-18T21:06:56.253Z,65.99
2023-04-18T21:09:23.129Z,65.57
2023-04-18T21:11:49.823Z,65.54
2023-04-18T21:14:17.263Z,65.02
2023-04-18T21:16:44.183Z,63.85
2023-04-18T21:19:11.101Z,63.37
2023-04-18T21:21:37.908Z,63.55
2023-04-18T21:24:05.720Z,62.36
2023-04-18T21:26:32.402Z,63.89
2023-04-18T21:29:01.526Z,65.09
2023-04-18T21:31:30.747Z,64.69
2023-04-18T21:34:02.427Z,63.84
2023-04-18T21:36:30.688Z,65.63
2023-04-18T21:38:59.572Z,64.11
2023-04-18T21:41:26.736Z,63.02
2023-04-18T21:43:53.495Z,62.80
2023-04-18T21:46:20.850Z,64.03
2023-04-18T21:48:48.091Z,62.98
2023-04-18T21:51:16.390Z,63.39
2023-04-18T21:53:43.439Z,63.55
2023-04-18T21:56:11.003Z,63.41
2023-04-18T21:58:37.722Z,63.68
2023-04-18T22:01:04.467Z,63.38
2023-04-18T22:03:33.470Z,63.67
2023-04-18T22:06:02.213Z,64.22
2023-04-18T22:08:29.572Z,64.43
2023-04-18T22:10:59.053Z,64.10
2023-04-18T22:13:30.057Z,64.20
2023-04-18T22:15:58.315Z,63.19
2023-04-18T22:18:25.384Z,64.17
2023-04-18T22:20:53.756Z,64.35
2023-04-18T22:23:20.792Z,63.94
2023-04-18T22:25:47.827Z,63.81
2023-04-18T22:28:14.516Z,62.76
2023-04-18T22:30:41.188Z,62.81
2023-04-18T22:33:07.796Z,62.35
2023-04-18T22:35:34.411Z,63.09
2023-04-18T22:38:01.106Z,63.28
2023-04-18T22:40:27.754Z,63.73
2023-04-18T22:42:54.449Z,63.37
2023-04-18T22:45:21.136Z,64.77
2023-04-18T22:47:47.875Z,64.67
2023-04-18T22:50:14.987Z,64.57
2023-04-18T22:52:41.833Z,63.34
2023-04-18T22:55:09.224Z,62.69
2023-04-18T22:57:36.200Z,62.66
2023-04-18T23:00:04.840Z,62.61
2023-04-18T23:02:31.558Z,62.13
2023-04-18T23:04:59.825Z,61.84
2023-04-18T23:07:26.404Z,61.86
2023-04-18T23:09:52.994Z,64.02
2023-04-18T23:12:19.802Z,63.67
2023-04-18T23:14:46.445Z,63.59
2023-04-18T23:17:12.983Z,63.68
2023-04-18T23:19:39.705Z,64.16
2023-04-18T23:22:06.381Z,64.12
2023-04-18T23:24:33.046Z,63.42
2023-04-18T23:26:59.645Z,63.43
2023-04-18T23:29:26.366Z,63.10
2023-04-18T23:31:53.144Z,62.47
2023-04-18T23:34:19.834Z,62.27
2023-04-18T23:36:46.711Z,61.56
2023-04-18T23:39:13.309Z,61.69
2023-04-18T23:41:40.000Z,62.14
2023-04-18T23:44:06.638Z,61.67
2023-04-18T23:46:35.719Z,60.91
2023-04-18T23:52:35.688Z,61.43
2023-04-18T23:55:02.429Z,61.63
2023-04-18T23:57:29.110Z,62.26
2023-04-18T23:59:55.823Z,61.79
